Time;durP1;ratioP1;P1;durP2;ratioP2;P2;SDS_P1;SDS_P2;PMS_P1;PMS_P2;Temp;Humidity;BMP_temperature;BMP_pressure;BME280_temperature;BME280_humidity;BME280_pressure;Samples;Min_cycle;Max_cycle;Signal;HPM_P1;HPM_P2
2021/11/24 00:01:30;;;;;;;5.43;2.20;;;;;;;;;;4992829;28;20065;-86
2021/11/24 00:03:56;;;;;;;6.53;2.37;;;;;;;;;;4992518;28;20031;-85
2021/11/24 00:06:22;;;;;;;3.93;1.97;;;;;;;;;;4976283;28;20506;-85
2021/11/24 00:08:49;;;;;;;4.80;2.27;;;;;;;;;;4992767;28;20030;-86
2021/11/24 00:11:15;;;;;;;4.60;1.80;;;;;;;;;;4993013;28;20053;-85
2021/11/24 00:13:41;;;;;;;5.57;2.07;;;;;;;;;;4975413;28;20035;-86
2021/11/24 00:16:11;;;;;;;3.93;1.87;;;;;;;;;;4997042;28;20026;-86
2021/11/24 00:18:37;;;;;;;10.40;2.50;;;;;;;;;;4995757;28;20006;-86
2021/11/24 00:21:07;;;;;;;6.63;2.30;;;;;;;;;;4994774;28;20026;-86
2021/11/24 00:23:33;;;;;;;6.47;1.70;;;;;;;;;;4995788;28;20042;-86
2021/11/24 00:25:59;;;;;;;6.07;2.33;;;;;;;;;;5012744;28;20056;-86
2021/11/24 00:28:25;;;;;;;7.13;2.30;;;;;;;;;;5013697;28;20030;-86
2021/11/24 00:30:51;;;;;;;4.13;1.73;;;;;;;;;;4995611;28;20031;-86
2021/11/24 00:33:17;;;;;;;7.40;3.00;;;;;;;;;;5011564;28;20154;-85
2021/11/24 00:35:43;;;;;;;6.53;2.30;;;;;;;;;;5011556;28;20034;-86
2021/11/24 00:38:09;;;;;;;5.27;2.10;;;;;;;;;;5012122;28;20026;-85
2021/11/24 00:40:37;;;;;;;5.03;2.10;;;;;;;;;;5013239;28;20034;-86
2021/11/24 00:43:04;;;;;;;5.13;1.87;;;;;;;;;;4993620;28;20039;-86
2021/11/24 00:45:30;;;;;;;6.27;2.47;;;;;;;;;;4992584;28;20031;-86
2021/11/24 00:47:56;;;;;;;6.17;2.37;;;;;;;;;;4999564;28;20321;-85
2021/11/24 00:50:22;;;;;;;5.43;2.20;;;;;;;;;;5011769;28;20034;-85
2021/11/24 00:52:51;;;;;;;9.07;2.10;;;;;;;;;;5012330;28;20034;-85
2021/11/24 00:55:18;;;;;;;4.00;1.87;;;;;;;;;;5012091;28;20290;-86
2021/11/24 00:57:44;;;;;;;4.77;2.27;;;;;;;;;;5012671;28;20045;-84
2021/11/24 01:00:17;;;;;;;4.23;1.93;;;;;;;;;;5002065;28;20034;-84
2021/11/24 01:02:45;;;;;;;8.50;2.60;;;;;;;;;;4995666;28;20038;-86
2021/11/24 01:05:11;;;;;;;5.73;1.97;;;;;;;;;;4994506;28;20038;-85
2021/11/24 01:07:37;;;;;;;7.87;2.20;;;;;;;;;;5011331;28;20038;-85
2021/11/24 01:10:05;;;;;;;3.97;1.87;;;;;;;;;;5011089;28;20085;-85
2021/11/24 01:12:31;;;;;;;5.50;2.13;;;;;;;;;;5010714;28;20032;-86
2021/11/24 01:14:57;;;;;;;7.13;2.60;;;;;;;;;;5009012;28;20030;-86
2021/11/24 01:17:23;;;;;;;5.10;2.20;;;;;;;;;;5010852;28;20098;-86
2021/11/24 01:19:49;;;;;;;3.73;1.90;;;;;;;;;;4993762;28;20138;-86
2021/11/24 01:22:15;;;;;;;4.87;2.10;;;;;;;;;;5013131;28;20015;-86
2021/11/24 01:24:41;;;;;;;5.30;2.37;;;;;;;;;;4995474;28;20204;-86
2021/11/24 01:27:08;;;;;;;5.47;2.20;;;;;;;;;;4995680;28;20053;-86
2021/11/24 01:29:34;;;;;;;7.10;2.40;;;;;;;;;;4996203;28;20085;-86
2021/11/24 01:32:00;;;;;;;5.87;2.53;;;;;;;;;;5012474;28;20030;-86
2021/11/24 01:34:26;;;;;;;5.07;1.80;;;;;;;;;;4995432;28;20029;-85
2021/11/24 01:36:52;;;;;;;5.30;2.40;;;;;;;;;;5012986;28;20035;-85
2021/11/24 01:39:18;;;;;;;7.23;2.27;;;;;;;;;;5015020;28;20023;-86
2021/11/24 01:41:44;;;;;;;6.00;2.10;;;;;;;;;;4998792;28;20132;-86
2021/11/24 01:44:23;;;;;;;7.40;2.23;;;;;;;;;;5014401;28;20034;-85
2021/11/24 01:46:54;;;;;;;5.00;2.07;;;;;;;;;;4999008;28;20102;-86
2021/11/24 01:49:20;;;;;;;4.07;2.33;;;;;;;;;;4998724;28;20065;-86
2021/11/24 01:51:46;;;;;;;5.07;2.23;;;;;;;;;;5014751;28;20526;-86
2021/11/24 01:54:14;;;;;;;6.60;2.23;;;;;;;;;;5016024;28;20031;-87
2021/11/24 01:56:40;;;;;;;5.53;2.30;;;;;;;;;;5015982;28;20321;-87
2021/11/24 01:59:08;;;;;;;4.80;1.90;;;;;;;;;;5016604;28;20105;-86
2021/11/24 02:01:34;;;;;;;4.47;1.63;;;;;;;;;;5006829;28;20126;-86
2021/11/24 02:04:00;;;;;;;3.60;1.90;;;;;;;;;;5002929;28;20027;-86
2021/11/24 02:06:26;;;;;;;6.10;2.17;;;;;;;;;;5015707;28;20026;-86
2021/11/24 02:08:52;;;;;;;6.83;2.07;;;;;;;;;;4993841;28;20011;-86
2021/11/24 02:11:18;;;;;;;5.43;2.40;;;;;;;;;;4978217;28;20109;-86
2021/11/24 02:13:44;;;;;;;4.57;2.23;;;;;;;;;;4995030;28;20027;-85
2021/11/24 02:16:10;;;;;;;7.40;2.30;;;;;;;;;;4995830;28;20050;-86
2021/11/24 02:18:36;;;;;;;6.73;2.50;;;;;;;;;;4979026;28;20030;-85
2021/11/24 02:21:02;;;;;;;4.23;1.77;;;;;;;;;;4995927;28;20042;-85
2021/11/24 02:23:28;;;;;;;5.60;2.20;;;;;;;;;;4995762;28;20113;-86
2021/11/24 02:25:54;;;;;;;5.30;2.30;;;;;;;;;;5006124;28;20065;-85
2021/11/24 02:28:20;;;;;;;7.47;2.47;;;;;;;;;;5014597;28;20034;-85
2021/11/24 02:30:46;;;;;;;5.77;2.37;;;;;;;;;;4997299;28;20046;-86
2021/11/24 02:33:13;;;;;;;7.00;2.20;;;;;;;;;;4998231;28;20030;-85
2021/11/24 02:35:41;;;;;;;5.33;2.20;;;;;;;;;;4993580;28;20058;-86
2021/11/24 02:38:07;;;;;;;4.43;1.97;;;;;;;;;;4994656;28;20018;-87
2021/11/24 02:40:35;;;;;;;5.00;2.17;;;;;;;;;;5013743;28;20035;-85
2021/11/24 02:43:01;;;;;;;4.67;2.23;;;;;;;;;;4996337;28;20030;-86
2021/11/24 02:45:28;;;;;;;7.97;2.40;;;;;;;;;;5013088;28;20010;-85
2021/11/24 02:47:54;;;;;;;6.03;2.80;;;;;;;;;;5014097;28;20092;-86
2021/11/24 02:50:20;;;;;;;5.73;2.53;;;;;;;;;;5013344;28;20152;-86
2021/11/24 02:52:46;;;;;;;6.20;1.97;;;;;;;;;;5000093;28;20097;-87
2021/11/24 02:55:15;;;;;;;6.23;2.43;;;;;;;;;;4993962;28;20042;-86
2021/11/24 02:57:48;;;;;;;6.87;2.30;;;;;;;;;;4994730;28;20050;-86
2021/11/24 03:00:16;;;;;;;6.43;2.90;;;;;;;;;;5006029;28;20094;-86
2021/11/24 03:02:43;;;;;;;4.27;1.70;;;;;;;;;;4996498;28;20043;-87
2021/11/24 03:05:10;;;;;;;4.53;2.23;;;;;;;;;;4994180;28;20050;-86
2021/11/24 03:07:36;;;;;;;6.30;2.23;;;;;;;;;;4993657;28;20066;-86
2021/11/24 03:10:02;;;;;;;6.80;2.60;;;;;;;;;;4994001;28;20030;-86
2021/11/24 03:12:28;;;;;;;7.00;2.87;;;;;;;;;;4978304;28;20027;-86
2021/11/24 03:14:54;;;;;;;8.03;2.43;;;;;;;;;;4977558;28;20023;-86
2021/11/24 03:17:20;;;;;;;4.80;2.67;;;;;;;;;;4995283;28;20027;-86
2021/11/24 03:19:48;;;;;;;5.40;2.27;;;;;;;;;;4977020;28;20062;-86
2021/11/24 03:22:21;;;;;;;9.53;3.27;;;;;;;;;;4994539;28;20045;-87
2021/11/24 03:24:50;;;;;;;6.53;2.80;;;;;;;;;;5002272;28;20022;-86
2021/11/24 03:27:16;;;;;;;6.17;2.87;;;;;;;;;;4995414;28;20090;-87
2021/11/24 03:29:42;;;;;;;4.53;2.60;;;;;;;;;;5013874;28;20034;-86
2021/11/24 03:32:09;;;;;;;5.80;2.60;;;;;;;;;;5013368;28;20475;-86
2021/11/24 03:34:35;;;;;;;7.77;3.37;;;;;;;;;;4996114;28;20081;-86
2021/11/24 03:37:01;;;;;;;5.43;2.47;;;;;;;;;;5013630;28;20147;-86
2021/11/24 03:39:27;;;;;;;6.13;2.60;;;;;;;;;;4996793;28;20037;-86
2021/11/24 03:41:53;;;;;;;7.00;3.10;;;;;;;;;;5013904;28;20375;-87
2021/11/24 03:44:19;;;;;;;8.73;3.30;;;;;;;;;;5013052;28;20037;-86
2021/11/24 03:46:45;;;;;;;7.30;3.17;;;;;;;;;;5003433;23;20410;-81
2021/11/24 03:49:11;;;;;;;7.13;3.00;;;;;;;;;;4974772;28;20126;-82
2021/11/24 03:51:37;;;;;;;7.80;3.17;;;;;;;;;;4975830;28;20034;-82
2021/11/24 03:54:03;;;;;;;7.10;3.40;;;;;;;;;;4976553;28;20027;-82
2021/11/24 03:56:29;;;;;;;10.23;3.77;;;;;;;;;;4975089;28;20015;-82
2021/11/24 03:58:55;;;;;;;5.93;2.73;;;;;;;;;;4960068;28;20038;-82
2021/11/24 04:01:21;;;;;;;8.80;2.80;;;;;;;;;;4995010;28;20141;-81
2021/11/24 04:03:49;;;;;;;7.83;3.80;;;;;;;;;;4978530;28;20053;-81
2021/11/24 04:06:15;;;;;;;5.73;2.53;;;;;;;;;;4973752;28;20031;-82
2021/11/24 04:08:41;;;;;;;6.23;3.07;;;;;;;;;;4976083;28;20034;-82
2021/11/24 04:11:07;;;;;;;9.27;3.73;;;;;;;;;;4975786;28;20455;-82
2021/11/24 04:13:33;;;;;;;8.90;3.20;;;;;;;;;;4976829;28;20074;-81
2021/11/24 04:15:59;;;;;;;7.13;3.10;;;;;;;;;;4976019;28;20050;-82
2021/11/24 04:18:25;;;;;;;7.90;3.43;;;;;;;;;;4975305;28;20054;-82
2021/11/24 04:20:55;;;;;;;8.37;3.17;;;;;;;;;;4975566;28;20030;-82
2021/11/24 04:23:21;;;;;;;9.57;3.60;;;;;;;;;;4995236;28;20034;-81
2021/11/24 04:25:47;;;;;;;9.67;3.40;;;;;;;;;;4993773;28;20034;-82
2021/11/24 04:28:13;;;;;;;5.87;3.10;;;;;;;;;;4977559;28;20031;-81
2021/11/24 04:30:39;;;;;;;7.50;3.43;;;;;;;;;;4973621;28;20045;-81
2021/11/24 04:33:05;;;;;;;6.93;3.53;;;;;;;;;;4994757;28;20113;-81
2021/11/24 04:35:31;;;;;;;7.00;2.90;;;;;;;;;;4977081;28;20497;-82
2021/11/24 04:37:57;;;;;;;7.17;3.27;;;;;;;;;;4994448;28;20030;-81
2021/11/24 04:40:23;;;;;;;9.40;3.30;;;;;;;;;;4977361;28;20042;-82
2021/11/24 04:42:50;;;;;;;9.00;3.53;;;;;;;;;;4994520;28;20031;-82
2021/11/24 04:45:17;;;;;;;8.20;3.63;;;;;;;;;;4977568;28;20096;-82
2021/11/24 04:47:44;;;;;;;10.27;3.37;;;;;;;;;;4994465;28;20042;-81
2021/11/24 04:50:10;;;;;;;6.93;3.00;;;;;;;;;;4994297;28;20027;-81
2021/11/24 04:52:36;;;;;;;7.67;3.13;;;;;;;;;;4994496;28;20041;-81
2021/11/24 04:55:03;;;;;;;7.00;2.90;;;;;;;;;;4975470;28;20033;-82
2021/11/24 04:57:29;;;;;;;8.30;3.63;;;;;;;;;;4974477;28;20149;-82
2021/11/24 04:59:55;;;;;;;7.17;2.83;;;;;;;;;;4976906;28;20058;-81
2021/11/24 05:02:21;;;;;;;8.37;3.37;;;;;;;;;;4995046;28;20026;-81
2021/11/24 05:04:47;;;;;;;7.53;3.63;;;;;;;;;;4990254;28;20035;-81
2021/11/24 05:07:13;;;;;;;5.97;3.10;;;;;;;;;;4974353;28;20086;-82
2021/11/24 05:09:39;;;;;;;7.07;3.03;;;;;;;;;;4957803;28;20037;-81
2021/11/24 05:12:05;;;;;;;9.27;3.33;;;;;;;;;;4992836;28;20405;-82
2021/11/24 05:14:35;;;;;;;8.53;3.63;;;;;;;;;;4976043;28;20035;-81
2021/11/24 05:17:04;;;;;;;8.30;3.27;;;;;;;;;;4990329;28;20026;-83
2021/11/24 05:19:32;;;;;;;10.40;3.43;;;;;;;;;;4974359;28;20104;-81
2021/11/24 05:21:59;;;;;;;6.03;2.70;;;;;;;;;;4978821;28;20042;-81
2021/11/24 05:24:25;;;;;;;10.53;3.40;;;;;;;;;;4976925;28;20054;-82
2021/11/24 05:26:51;;;;;;;10.17;2.63;;;;;;;;;;4978441;28;20030;-82
2021/11/24 05:29:22;;;;;;;7.07;3.17;;;;;;;;;;4976570;28;20632;-82
2021/11/24 05:31:49;;;;;;;7.50;3.37;;;;;;;;;;4975811;28;20042;-82
2021/11/24 05:34:15;;;;;;;6.23;2.83;;;;;;;;;;4974568;28;20072;-82
2021/11/24 05:36:41;;;;;;;6.87;3.20;;;;;;;;;;4976571;28;20372;-82
2021/11/24 05:39:09;;;;;;;6.67;3.00;;;;;;;;;;4992671;28;20026;-82
2021/11/24 05:41:39;;;;;;;9.40;4.03;;;;;;;;;;4994802;28;20391;-82
2021/11/24 05:44:24;;;;;;;8.10;3.00;;;;;;;;;;4972735;28;20474;-82
2021/11/24 05:46:56;;;;;;;10.30;3.83;;;;;;;;;;4994234;28;20502;-82
2021/11/24 05:49:24;;;;;;;7.37;3.57;;;;;;;;;;4976383;28;20414;-81
2021/11/24 05:51:50;;;;;;;7.90;3.20;;;;;;;;;;4993677;28;20072;-82
2021/11/24 05:54:17;;;;;;;7.27;3.37;;;;;;;;;;4993514;28;20108;-82
2021/11/24 05:56:43;;;;;;;6.23;2.97;;;;;;;;;;4993119;28;20027;-82
2021/11/24 05:59:10;;;;;;;11.60;4.07;;;;;;;;;;4977516;28;20105;-82
2021/11/24 06:01:37;;;;;;;6.20;3.07;;;;;;;;;;4994557;28;20056;-82
2021/11/24 06:04:04;;;;;;;9.97;3.87;;;;;;;;;;4993057;28;20034;-83
2021/11/24 06:06:30;;;;;;;7.77;3.23;;;;;;;;;;4997108;28;20538;-82
2021/11/24 06:08:58;;;;;;;8.17;3.77;;;;;;;;;;4996475;28;20027;-82
2021/11/24 06:11:25;;;;;;;10.87;4.07;;;;;;;;;;4976431;28;20479;-82
2021/11/24 06:13:51;;;;;;;11.27;4.13;;;;;;;;;;4992965;28;20034;-82
2021/11/24 06:16:17;;;;;;;8.30;3.83;;;;;;;;;;4992780;28;20034;-82
2021/11/24 06:18:43;;;;;;;12.63;4.43;;;;;;;;;;4994564;28;20030;-82
2021/11/24 06:21:09;;;;;;;11.13;4.53;;;;;;;;;;4975462;28;20034;-82
2021/11/24 06:23:39;;;;;;;9.33;4.43;;;;;;;;;;4972973;28;20104;-82
2021/11/24 06:26:06;;;;;;;7.93;3.50;;;;;;;;;;4977086;28;20049;-82
2021/11/24 06:28:32;;;;;;;9.67;3.73;;;;;;;;;;4988108;28;20039;-82
2021/11/24 06:30:58;;;;;;;9.73;4.00;;;;;;;;;;4974779;28;20041;-81
2021/11/24 06:33:26;;;;;;;9.30;3.70;;;;;;;;;;4974861;28;20026;-81
2021/11/24 06:35:52;;;;;;;7.13;3.17;;;;;;;;;;4992506;28;20546;-82
2021/11/24 06:38:18;;;;;;;9.13;4.23;;;;;;;;;;4993900;28;20093;-82
2021/11/24 06:40:45;;;;;;;9.57;4.30;;;;;;;;;;4993627;28;20022;-82
2021/11/24 06:43:11;;;;;;;11.93;4.00;;;;;;;;;;4974470;28;20034;-82
2021/11/24 06:45:37;;;;;;;11.60;4.87;;;;;;;;;;4991187;28;20038;-82
2021/11/24 06:48:03;;;;;;;14.33;4.43;;;;;;;;;;4992926;28;20044;-82
2021/11/24 06:50:29;;;;;;;22.50;5.47;;;;;;;;;;4975999;28;20034;-82
2021/11/24 06:52:56;;;;;;;10.47;4.47;;;;;;;;;;4975648;28;20398;-82
2021/11/24 06:55:22;;;;;;;11.07;4.63;;;;;;;;;;4974722;28;20145;-82
2021/11/24 06:57:48;;;;;;;11.47;4.80;;;;;;;;;;4974783;28;20061;-82
2021/11/24 07:00:14;;;;;;;8.93;4.70;;;;;;;;;;4992474;28;20064;-82
2021/11/24 07:02:40;;;;;;;11.50;5.20;;;;;;;;;;4974419;28;20491;-82
2021/11/24 07:05:07;;;;;;;12.63;4.73;;;;;;;;;;4985611;28;20049;-82
2021/11/24 07:07:33;;;;;;;17.77;5.23;;;;;;;;;;4972991;28;20400;-82
2021/11/24 07:10:01;;;;;;;10.67;4.63;;;;;;;;;;4975942;28;20053;-81
2021/11/24 07:12:27;;;;;;;9.30;3.87;;;;;;;;;;4974368;28;20027;-83
2021/11/24 07:14:55;;;;;;;11.00;4.67;;;;;;;;;;4972766;28;20034;-82
2021/11/24 07:17:21;;;;;;;11.60;4.87;;;;;;;;;;4955471;28;20094;-82
2021/11/24 07:19:47;;;;;;;11.77;5.20;;;;;;;;;;4954989;28;20037;-82
2021/11/24 07:22:13;;;;;;;11.50;4.73;;;;;;;;;;4974480;28;20038;-82
2021/11/24 07:24:40;;;;;;;14.03;5.77;;;;;;;;;;4991120;28;20099;-82
2021/11/24 07:27:06;;;;;;;12.80;5.60;;;;;;;;;;4990263;28;20041;-83
2021/11/24 07:29:32;;;;;;;11.40;5.53;;;;;;;;;;4976169;28;20030;-82
2021/11/24 07:31:58;;;;;;;13.83;5.93;;;;;;;;;;4973169;28;20384;-84
2021/11/24 07:34:24;;;;;;;12.03;5.30;;;;;;;;;;4972696;28;20026;-86
2021/11/24 07:36:50;;;;;;;11.77;5.20;;;;;;;;;;4973601;28;20026;-86
2021/11/24 07:39:16;;;;;;;11.60;5.23;;;;;;;;;;4975381;28;20026;-86
2021/11/24 07:41:42;;;;;;;12.60;6.00;;;;;;;;;;5003523;28;20062;-86
2021/11/24 07:44:08;;;;;;;12.03;4.57;;;;;;;;;;4990466;28;20034;-86
2021/11/24 07:46:35;;;;;;;13.20;4.87;;;;;;;;;;4995947;28;20034;-87
2021/11/24 07:49:01;;;;;;;14.40;5.00;;;;;;;;;;4974082;28;20061;-86
2021/11/24 07:51:27;;;;;;;11.80;4.83;;;;;;;;;;4990630;28;21217;-87
2021/11/24 07:53:54;;;;;;;13.03;5.93;;;;;;;;;;4973039;28;20054;-87
2021/11/24 07:56:20;;;;;;;11.40;4.23;;;;;;;;;;4973058;28;20109;-86
2021/11/24 07:58:46;;;;;;;12.87;5.43;;;;;;;;;;4973539;28;20399;-86
2021/11/24 08:01:13;;;;;;;14.50;6.00;;;;;;;;;;4989783;28;20026;-86
2021/11/24 08:03:39;;;;;;;15.37;6.10;;;;;;;;;;4971958;28;20031;-86
2021/11/24 08:06:05;;;;;;;14.53;6.70;;;;;;;;;;4989572;28;20105;-86
2021/11/24 08:08:32;;;;;;;15.17;5.07;;;;;;;;;;4971754;28;20041;-86
2021/11/24 08:10:58;;;;;;;13.90;5.20;;;;;;;;;;4968587;28;20042;-84
2021/11/24 08:13:24;;;;;;;13.63;5.53;;;;;;;;;;4970499;28;20022;-84
2021/11/24 08:15:50;;;;;;;16.63;6.60;;;;;;;;;;4952754;28;20037;-84
2021/11/24 08:18:17;;;;;;;13.93;4.97;;;;;;;;;;4974517;28;20034;-86
2021/11/24 08:20:43;;;;;;;13.03;6.20;;;;;;;;;;4971536;28;20165;-86
2021/11/24 08:23:09;;;;;;;13.27;5.80;;;;;;;;;;4967360;28;20039;-88
2021/11/24 08:25:35;;;;;;;12.17;5.20;;;;;;;;;;4972615;28;20030;-87
2021/11/24 08:28:01;;;;;;;16.47;6.60;;;;;;;;;;4969283;28;20034;-87
2021/11/24 08:30:27;;;;;;;11.40;4.47;;;;;;;;;;4970614;28;20042;-87
2021/11/24 08:32:54;;;;;;;13.23;5.40;;;;;;;;;;4952732;28;20189;-88
2021/11/24 08:35:21;;;;;;;14.57;6.53;;;;;;;;;;4969651;28;20023;-87
2021/11/24 08:37:48;;;;;;;13.10;5.60;;;;;;;;;;4975750;28;20039;-88
2021/11/24 08:40:14;;;;;;;10.97;5.57;;;;;;;;;;4972233;28;20022;-88
2021/11/24 08:42:40;;;;;;;15.70;6.87;;;;;;;;;;4971403;28;20038;-88
2021/11/24 08:45:08;;;;;;;13.73;5.83;;;;;;;;;;4968165;28;20031;-88
2021/11/24 08:47:34;;;;;;;14.37;5.80;;;;;;;;;;4955535;28;20031;-88
2021/11/24 08:50:01;;;;;;;16.03;7.07;;;;;;;;;;4967398;28;20532;-86
2021/11/24 08:52:27;;;;;;;19.80;7.17;;;;;;;;;;4970777;28;20030;-87
2021/11/24 08:54:53;;;;;;;11.30;5.93;;;;;;;;;;4974638;28;20037;-87
2021/11/24 08:57:19;;;;;;;13.47;6.23;;;;;;;;;;4973374;28;20801;-86
2021/11/24 08:59:47;;;;;;;16.97;5.97;;;;;;;;;;4999936;28;20030;-87
2021/11/24 09:02:13;;;;;;;14.97;6.17;;;;;;;;;;4978123;28;20040;-87
2021/11/24 09:04:41;;;;;;;15.53;6.80;;;;;;;;;;4977896;28;20053;-87
2021/11/24 09:07:07;;;;;;;15.13;6.20;;;;;;;;;;4978501;28;20054;-87
2021/11/24 09:09:35;;;;;;;20.20;7.90;;;;;;;;;;4982537;28;20491;-87
2021/11/24 09:12:01;;;;;;;20.40;8.60;;;;;;;;;;4986945;28;20034;-87
2021/11/24 09:14:27;;;;;;;14.73;6.87;;;;;;;;;;5006224;28;20045;-87
2021/11/24 09:16:54;;;;;;;13.97;6.30;;;;;;;;;;4998490;28;20026;-87
2021/11/24 09:19:20;;;;;;;16.03;5.83;;;;;;;;;;4978019;28;20619;-87
2021/11/24 09:21:46;;;;;;;13.73;5.93;;;;;;;;;;4995554;28;20046;-87
2021/11/24 09:24:15;;;;;;;11.67;6.00;;;;;;;;;;4996380;28;20089;-86
2021/11/24 09:26:45;;;;;;;14.43;5.87;;;;;;;;;;4992349;28;20034;-86
2021/11/24 09:29:12;;;;;;;11.53;5.47;;;;;;;;;;4995375;28;20026;-87
2021/11/24 09:31:38;;;;;;;14.97;6.27;;;;;;;;;;4995554;28;20041;-87
2021/11/24 09:34:05;;;;;;;14.63;6.67;;;;;;;;;;4981577;28;20513;-87
2021/11/24 09:36:34;;;;;;;13.37;6.50;;;2.00;99.90;;;;;;4977087;28;20376;-87
2021/11/24 09:39:00;;;;;;;14.57;5.50;;;1.90;99.90;;;;;;4977159;28;20034;-87
2021/11/24 09:41:29;;;;;;;14.20;6.13;;;2.30;99.90;;;;;;4988868;28;20037;-87
2021/11/24 09:43:58;;;;;;;14.87;6.17;;;1.70;99.90;;;;;;4974557;28;20069;-88
2021/11/24 09:46:24;;;;;;;14.90;6.17;;;1.60;99.90;;;;;;4973592;28;20595;-87
2021/11/24 09:48:51;;;;;;;15.13;6.40;;;2.60;99.90;;;;;;4975418;28;20093;-87
2021/11/24 09:51:19;;;;;;;15.57;6.10;;;1.70;99.90;;;;;;4945669;28;20129;-87
2021/11/24 09:53:48;;;;;;;13.93;6.03;;;1.70;99.90;;;;;;4959645;28;20037;-87
2021/11/24 09:56:14;;;;;;;16.37;6.27;;;1.90;99.90;;;;;;4973978;28;20030;-87
2021/11/24 09:58:40;;;;;;;14.60;6.23;;;1.80;99.90;;;;;;4973025;28;20035;-87
2021/11/24 10:01:07;;;;;;;13.53;6.20;;;1.80;99.90;;;;;;4956986;28;20035;-86
2021/11/24 10:03:32;;;;;;;14.17;5.57;;;2.00;99.90;;;;;;4957473;28;20038;-86
2021/11/24 10:05:58;;;;;;;17.37;6.63;;;2.00;99.90;;;;;;4964554;28;20415;-87
2021/11/24 10:08:25;;;;;;;15.50;6.00;;;3.10;99.90;;;;;;4962712;28;20834;-87
2021/11/24 10:10:51;;;;;;;11.37;5.23;;;3.30;99.90;;;;;;4973026;28;20069;-87
2021/11/24 10:13:16;;;;;;;14.73;6.17;;;2.10;99.90;;;;;;4974204;28;20038;-87
2021/11/24 10:15:52;;;;;;;11.03;4.80;;;2.20;99.90;;;;;;4973097;28;20034;-87
2021/11/24 10:18:22;;;;;;;11.73;4.93;;;2.10;99.90;;;;;;4971239;28;20062;-87
2021/11/24 10:26:37;;;;;;;13.03;4.90;;;2.30;99.90;;;;;;5058584;23;20050;-84
2021/11/24 10:29:06;;;;;;;13.90;5.20;;;3.20;99.90;;;;;;5004178;28;20027;-83
2021/11/24 10:31:47;;;;;;;11.00;4.83;;;2.40;99.90;;;;;;4995111;28;20093;-83
2021/11/24 10:34:14;;;;;;;14.10;5.40;;;3.30;99.90;;;;;;5009278;28;20053;-83
2021/11/24 10:37:05;;;;;;;11.17;5.13;;;3.10;99.90;;;;;;5012301;28;20119;-84
2021/11/24 10:39:36;;;;;;;10.27;4.53;;;2.80;99.90;;;;;;5012274;28;20014;-84
2021/11/24 10:42:04;;;;;;;10.67;4.60;;;2.50;99.90;;;;;;5011911;28;20029;-84
2021/11/24 10:44:31;;;;;;;9.87;4.90;;;3.40;99.90;;;;;;5012977;28;20022;-84
2021/11/24 10:46:59;;;;;;;11.43;5.20;;;2.70;99.90;;;;;;5013074;28;20022;-85
2021/11/24 10:49:35;;;;;;;13.30;5.10;;;2.60;99.90;;;;;;5007327;28;20083;-84
2021/11/24 10:52:15;;;;;;;11.27;4.90;;;2.90;99.90;;;;;;5011150;28;20073;-85
2021/11/24 10:54:42;;;;;;;10.63;5.87;;;3.50;99.90;;;;;;4994467;28;20082;-85
2021/11/24 10:57:08;;;;;;;16.03;6.33;;;2.70;99.90;;;;;;5012385;28;20103;-85
2021/11/24 10:59:44;;;;;;;11.90;5.23;;;3.90;99.90;;;;;;5011853;28;20086;-85
2021/11/24 11:02:21;;;;;;;12.67;5.67;;;2.80;99.90;;;;;;4995894;28;20024;-85
2021/11/24 11:05:08;;;;;;;13.67;6.27;;;2.80;99.90;;;;;;5012387;28;20048;-85
2021/11/24 11:07:49;;;;;;;12.60;5.23;;;2.80;99.90;;;;;;5013108;28;20022;-84
2021/11/24 11:10:22;;;;;;;13.80;6.00;;;2.70;99.90;;;;;;4993595;28;20023;-85
2021/11/24 11:13:00;;;;;;;13.53;5.50;;;2.90;99.90;;;;;;4976225;28;20034;-84
2021/11/24 11:15:35;;;;;;;12.97;5.97;;;2.90;99.90;;;;;;4995206;28;20103;-84
2021/11/24 11:18:06;;;;;;;14.37;5.83;;;3.10;99.90;;;;;;4978930;28;20014;-84
2021/11/24 11:20:43;;;;;;;13.55;5.45;;;3.10;99.90;;;;;;4978328;28;20026;-83
2021/11/24 11:23:13;;;;;;;15.63;5.93;;;3.40;99.90;;;;;;4995735;28;20054;-84
2021/11/24 11:25:42;;;;;;;13.13;5.40;;;3.50;99.90;;;;;;4993180;28;20039;-84
2021/11/24 11:28:09;;;;;;;15.30;5.63;;;3.40;99.90;;;;;;4995812;28;20011;-84
2021/11/24 11:30:36;;;;;;;16.37;6.17;;;4.60;99.90;;;;;;4992595;28;20130;-84
2021/11/24 11:33:03;;;;;;;14.10;5.17;;;3.90;99.90;;;;;;4996702;28;20026;-83
2021/11/24 11:35:28;;;;;;;14.83;5.70;;;3.30;99.90;;;;;;5014092;28;20012;-83
2021/11/24 11:37:56;;;;;;;13.30;5.37;;;4.20;99.90;;;;;;5015237;28;20069;-83
2021/11/24 11:40:22;;;;;;;16.57;6.00;;;3.10;99.90;;;;;;4998633;28;20323;-84
2021/11/24 11:42:50;;;;;;;15.13;5.10;;;3.20;99.90;;;;;;5014217;28;20041;-84
2021/11/24 11:45:17;;;;;;;14.00;4.90;;;4.40;99.90;;;;;;5014613;28;20029;-83
2021/11/24 11:47:46;;;;;;;13.53;4.73;;;3.90;99.90;;;;;;4997122;28;20018;-84
2021/11/24 11:50:42;;;;;;;12.67;4.73;;;3.40;99.90;;;;;;5014358;28;20022;-83
2021/11/24 11:53:21;;;;;;;12.73;4.50;;;4.60;99.90;;;;;;5006295;28;20093;-84
2021/11/24 11:56:20;;;;;;;12.23;4.53;;;3.40;99.90;;;;;;4995406;28;20031;-83
2021/11/24 11:59:00;;;;;;;12.17;4.90;;;3.70;99.90;;;;;;4990316;28;20046;-83
2021/11/24 12:01:27;;;;;;;11.57;5.27;;;3.70;99.90;;;;;;5001242;28;20040;-83
2021/11/24 12:03:52;;;;;;;12.40;5.07;;;3.70;99.90;;;;;;5015734;28;20030;-83
2021/11/24 12:06:20;;;;;;;8.47;4.10;;;4.70;99.90;;;;;;5016006;28;20034;-83
2021/11/24 12:09:26;;;;;;;13.30;5.20;;;3.50;99.90;;;;;;5014947;28;20049;-83
2021/11/24 12:12:01;;;;;;;10.63;4.50;;;4.20;99.90;;;;;;4954691;29;20202;-83
2021/11/24 12:14:42;;;;;;;10.10;4.30;;;5.20;99.90;;;;;;4949399;29;20042;-83
2021/11/24 12:17:33;;;;;;;11.40;4.93;;;4.90;99.90;;;;;;4993530;28;20030;-83
2021/11/24 12:20:27;;;;;;;10.37;4.57;;;3.70;99.90;;;;;;4994954;28;20052;-83
2021/11/24 12:22:55;;;;;;;11.13;4.17;;;4.00;99.90;;;;;;4988515;28;20061;-83
2021/11/24 12:25:21;;;;;;;11.90;4.80;;;3.70;99.90;;;;;;5006786;28;20027;-83
2021/11/24 12:28:00;;;;;;;11.97;4.83;;;3.80;99.90;;;;;;4990744;28;20133;-83
2021/11/24 12:33:16;;;;;;;11.43;4.73;;;5.10;99.90;;;;;;5006141;28;20031;-83
2021/11/24 12:36:20;;;;;;;13.48;4.60;;;3.90;99.90;;;;;;5008353;28;20018;-83
2021/11/24 12:38:55;;;;;;;10.27;4.03;;;4.10;99.90;;;;;;5006105;28;20030;-83
2021/11/24 12:41:38;;;;;;;12.40;4.93;;;4.10;99.90;;;;;;4992080;28;20031;-83
2021/11/24 12:44:10;;;;;;;12.13;5.40;;;4.10;99.90;;;;;;5007419;28;20026;-83
2021/11/24 12:46:39;;;;;;;13.48;5.40;;;4.00;99.90;;;;;;5006469;28;20026;-83
2021/11/24 12:49:18;;;;;;;13.80;5.57;;;5.00;99.90;;;;;;5005820;28;20041;-83
2021/11/24 12:51:48;;;;;;;11.70;5.57;;;4.00;99.90;;;;;;5006518;28;20045;-83
2021/11/24 12:54:25;;;;;;;13.80;5.13;;;4.00;99.90;;;;;;5006682;28;20033;-83
2021/11/24 12:56:56;;;;;;;12.83;5.17;;;6.10;99.90;;;;;;4989409;28;20014;-83
2021/11/24 12:59:25;;;;;;;11.20;5.53;;;4.10;99.90;;;;;;5007813;28;20049;-83
2021/11/24 13:01:53;;;;;;;12.67;5.73;;;5.40;99.90;;;;;;4989465;28;20022;-83
2021/11/24 13:04:22;;;;;;;11.37;4.83;;;3.90;99.90;;;;;;5008313;28;20022;-83
2021/11/24 13:06:54;;;;;;;12.50;5.10;;;5.60;99.90;;;;;;5007811;28;20026;-83
2021/11/24 13:09:22;;;;;;;15.70;5.47;;;4.40;99.90;;;;;;4991008;28;20025;-83
2021/11/24 13:11:58;;;;;;;12.87;5.20;;;5.50;99.90;;;;;;5007591;28;20655;-83
2021/11/24 13:14:35;;;;;;;13.07;5.53;;;3.90;99.90;;;;;;5007899;28;20022;-83
2021/11/24 13:17:16;;;;;;;11.70;5.23;;;4.50;99.90;;;;;;5005482;28;20033;-82
2021/11/24 13:19:59;;;;;;;12.60;4.83;;;4.30;99.90;;;;;;5007416;28;20026;-83
2021/11/24 13:22:38;;;;;;;11.77;5.33;;;4.40;99.90;;;;;;5007865;28;20040;-83
2021/11/24 13:25:17;;;;;;;15.00;5.23;;;4.30;99.90;;;;;;5005430;28;20129;-82
2021/11/24 13:27:46;;;;;;;11.77;5.33;;;5.50;99.90;;;;;;5005999;28;20026;-84
2021/11/24 13:30:22;;;;;;;12.70;5.23;;;6.10;99.90;;;;;;5005147;28;20014;-83
2021/11/24 13:33:00;;;;;;;14.37;5.20;;;4.70;99.90;;;;;;5006715;28;20029;-83
2021/11/24 13:35:27;;;;;;;12.70;5.13;;;6.00;99.90;;;;;;5008136;28;20045;-83
2021/11/24 13:37:54;;;;;;;13.77;5.30;;;5.30;99.90;;;;;;5009463;28;20085;-83
2021/11/24 13:40:42;;;;;;;14.23;5.07;;;3.90;99.90;;;;;;5009758;28;20022;-83
2021/11/24 13:43:09;;;;;;;15.53;5.70;;;3.60;99.90;;;;;;5009792;28;20022;-83
2021/11/24 13:45:41;;;;;;;12.67;5.53;;;5.10;99.90;;;;;;5011740;28;20049;-83
2021/11/24 13:48:16;;;;;;;12.07;5.22;;;4.50;99.90;;;;;;5012447;28;20478;-83
2021/11/24 13:51:02;;;;;;;14.23;6.03;;;3.90;99.90;;;;;;5012061;28;20472;-82
2021/11/24 13:53:32;;;;;;;12.83;5.57;;;3.90;99.90;;;;;;5009516;28;20023;-83
2021/11/24 13:56:17;;;;;;;13.67;5.60;;;3.90;99.90;;;;;;5011952;28;20010;-84
2021/11/24 13:58:54;;;;;;;16.43;5.87;;;3.80;99.90;;;;;;5012961;28;20109;-83
2021/11/24 14:01:27;;;;;;;12.40;5.10;;;3.70;99.90;;;;;;5010920;28;20041;-83
2021/11/24 14:03:56;;;;;;;14.17;5.63;;;3.70;99.90;;;;;;5011904;28;20096;-83
2021/11/24 14:06:43;;;;;;;21.97;6.10;;;4.90;99.90;;;;;;5011978;28;20014;-82
2021/11/24 14:09:20;;;;;;;13.07;5.33;;;3.60;99.90;;;;;;5008321;28;20022;-83
2021/11/24 14:11:58;;;;;;;11.80;5.13;;;3.70;99.90;;;;;;4992229;28;20024;-83
2021/11/24 14:14:28;;;;;;;13.20;5.30;;;3.70;99.90;;;;;;5008789;28;20034;-83
2021/11/24 14:17:01;;;;;;;14.10;6.13;;;3.40;99.90;;;;;;4977132;28;20089;-83